createdAt,value
2018-02-11T00:00:19.222Z,4.06
2018-02-11T00:01:19.170Z,4.06
2018-02-11T00:02:19.218Z,4.11
2018-02-11T00:03:19.066Z,4.11
2018-02-11T00:04:19.016Z,4.20
2018-02-11T00:05:18.962Z,4.20
2018-02-11T00:06:18.911Z,4.24
2018-02-11T00:07:18.859Z,4.24
2018-02-11T00:08:18.806Z,4.14
2018-02-11T00:09:18.754Z,4.14
2018-02-11T00:10:18.703Z,4.11
2018-02-11T00:11:18.657Z,3.98
2018-02-11T00:12:18.599Z,3.91
2018-02-11T00:13:18.547Z,3.98
2018-02-11T00:14:18.505Z,4.00
2018-02-11T00:15:18.445Z,3.94
2018-02-11T00:16:18.392Z,3.91
2018-02-11T00:17:18.340Z,3.88
2018-02-11T00:18:18.288Z,3.84
2018-02-11T00:19:18.235Z,3.86
2018-02-11T00:20:18.183Z,3.76
2018-02-11T00:21:18.132Z,3.72
2018-02-11T00:22:18.080Z,3.68
2018-02-11T00:23:18.027Z,3.65
2018-02-11T00:24:17.975Z,3.66
2018-02-11T00:25:17.923Z,3.58
2018-02-11T00:26:17.871Z,3.61
2018-02-11T00:27:17.822Z,3.57
2018-02-11T00:28:17.765Z,3.61
2018-02-11T00:29:17.714Z,3.65
2018-02-11T00:30:17.661Z,3.58
2018-02-11T00:31:17.608Z,3.68
2018-02-11T00:32:17.556Z,3.68
2018-02-11T00:33:17.503Z,3.55
2018-02-11T00:34:17.451Z,3.52
2018-02-11T00:35:17.398Z,3.58
2018-02-11T00:36:17.346Z,3.52
2018-02-11T00:37:17.294Z,3.61
2018-02-11T00:38:17.292Z,3.55
2018-02-11T00:39:17.188Z,3.50
2018-02-11T00:40:17.136Z,3.55
2018-02-11T00:41:17.083Z,3.54
2018-02-11T00:42:17.031Z,3.55
2018-02-11T00:43:16.978Z,3.55
2018-02-11T00:44:16.924Z,3.60
2018-02-11T00:45:16.873Z,3.54
2018-02-11T00:46:16.820Z,3.61
2018-02-11T00:47:16.768Z,3.51
2018-02-11T00:48:16.715Z,3.57
2018-02-11T00:49:16.663Z,3.55
2018-02-11T00:50:16.614Z,3.55
2018-02-11T00:51:16.557Z,3.54
2018-02-11T00:52:16.504Z,3.58
2018-02-11T00:53:16.453Z,3.58
2018-02-11T00:54:16.400Z,3.58
2018-02-11T00:55:16.347Z,3.57
2018-02-11T00:56:16.294Z,3.62
2018-02-11T00:57:16.243Z,3.57
2018-02-11T00:58:16.291Z,3.52
2018-02-11T00:59:16.137Z,3.60
2018-02-11T01:00:16.085Z,3.58
2018-02-11T01:01:16.032Z,3.54
2018-02-11T01:02:15.980Z,3.54
2018-02-11T01:03:15.927Z,3.52
2018-02-11T01:04:15.874Z,3.57
2018-02-11T01:05:15.822Z,3.57
2018-02-11T01:06:15.774Z,3.55
2018-02-11T01:07:15.716Z,3.54
2018-02-11T01:08:15.662Z,3.45
2018-02-11T01:09:15.611Z,3.50
2018-02-11T01:10:15.563Z,3.50
2018-02-11T01:11:15.506Z,3.45
2018-02-11T01:12:15.453Z,3.48
2018-02-11T01:13:15.400Z,3.51
2018-02-11T01:14:15.349Z,3.54
2018-02-11T01:15:15.295Z,3.47
2018-02-11T01:16:15.243Z,3.43
2018-02-11T01:17:15.190Z,3.47
2018-02-11T01:18:15.138Z,3.51
2018-02-11T01:19:15.084Z,3.47
2018-02-11T01:20:15.032Z,3.55
2018-02-11T01:21:14.979Z,3.54
2018-02-11T01:22:14.927Z,3.54
2018-02-11T01:23:14.873Z,3.52
2018-02-11T01:24:14.821Z,3.54
2018-02-11T01:25:14.769Z,3.58
2018-02-11T01:26:14.717Z,3.61
2018-02-11T01:27:14.664Z,3.54
2018-02-11T01:28:14.611Z,3.52
2018-02-11T01:29:14.559Z,3.61
2018-02-11T01:30:14.506Z,3.66
2018-02-11T01:31:14.453Z,3.66
2018-02-11T01:32:14.400Z,3.65
2018-02-11T01:33:14.350Z,3.68
2018-02-11T01:34:14.296Z,3.73
2018-02-11T01:35:14.245Z,3.70
2018-02-11T01:36:14.241Z,3.69
2018-02-11T01:37:14.139Z,3.78
2018-02-11T01:38:14.089Z,3.86
2018-02-11T01:39:14.034Z,3.79
2018-02-11T01:40:13.981Z,3.78
2018-02-11T01:41:13.934Z,3.75
2018-02-11T01:42:13.878Z,3.86
2018-02-11T01:43:13.825Z,3.84
2018-02-11T01:44:13.773Z,3.80
2018-02-11T01:45:13.720Z,3.79
2018-02-11T01:46:13.669Z,3.80
2018-02-11T01:47:13.616Z,3.88
2018-02-11T01:48:13.564Z,3.76
2018-02-11T01:49:13.512Z,3.76
2018-02-11T01:50:13.462Z,3.83
2018-02-11T01:51:13.407Z,3.86
2018-02-11T01:52:13.355Z,3.87
2018-02-11T01:53:13.303Z,3.90
2018-02-11T01:54:13.251Z,3.96
2018-02-11T01:55:13.198Z,3.97
2018-02-11T01:56:13.147Z,3.88
2018-02-11T01:57:13.095Z,3.94
2018-02-11T01:58:13.043Z,3.94
2018-02-11T01:59:12.990Z,3.94
2018-02-11T02:00:12.937Z,4.05
2018-02-11T02:01:12.889Z,4.05
2018-02-11T02:02:12.835Z,4.04
2018-02-11T02:03:12.782Z,4.06
2018-02-11T02:04:12.731Z,4.06
2018-02-11T02:05:12.678Z,4.09
2018-02-11T02:06:12.627Z,4.09
2018-02-11T02:07:12.574Z,4.09
2018-02-11T02:08:12.522Z,4.05
2018-02-11T02:09:12.471Z,4.11
2018-02-11T02:10:12.419Z,4.06
2018-02-11T02:11:12.367Z,3.97
2018-02-11T02:12:12.315Z,4.04
2018-02-11T02:13:12.263Z,4.00
2018-02-11T02:14:12.212Z,3.88
2018-02-11T02:15:12.159Z,3.94
2018-02-11T02:16:12.109Z,3.97
2018-02-11T02:17:12.055Z,3.93
2018-02-11T02:18:12.004Z,3.94
2018-02-11T02:19:11.951Z,3.97
2018-02-11T02:20:11.899Z,3.97
2018-02-11T02:21:11.848Z,3.94
2018-02-11T02:22:11.796Z,3.96
2018-02-11T02:23:11.742Z,3.94
2018-02-11T02:24:11.691Z,3.94
2018-02-11T02:25:11.639Z,3.97
2018-02-11T02:26:11.588Z,3.93
2018-02-11T02:27:11.534Z,3.88
2018-02-11T02:28:11.483Z,3.88
2018-02-11T02:29:11.431Z,3.75
2018-02-11T02:30:11.383Z,3.78
2018-02-11T02:31:11.328Z,3.80
2018-02-11T02:32:11.278Z,3.80
2018-02-11T02:33:11.223Z,3.84
2018-02-11T02:34:11.272Z,3.87
2018-02-11T02:35:11.118Z,3.84
2018-02-11T02:36:11.067Z,3.80
2018-02-11T02:37:11.049Z,3.83
2018-02-11T02:38:10.963Z,3.83
2018-02-11T02:39:10.915Z,3.70
2018-02-11T02:40:10.858Z,3.65
2018-02-11T02:41:10.810Z,3.65
2018-02-11T02:42:10.755Z,3.58
2018-02-11T02:43:10.702Z,3.54
2018-02-11T02:44:10.650Z,3.54
2018-02-11T02:45:10.603Z,3.52
2018-02-11T02:46:10.553Z,3.50
2018-02-11T02:47:10.493Z,3.40
2018-02-11T02:48:10.442Z,3.40
2018-02-11T02:49:10.390Z,3.35
2018-02-11T02:50:10.337Z,3.31
2018-02-11T02:51:10.285Z,3.28
2018-02-11T02:52:10.233Z,3.32
2018-02-11T02:53:10.181Z,3.29
2018-02-11T02:54:10.128Z,3.43
2018-02-11T02:55:10.075Z,3.32
2018-02-11T02:56:10.023Z,3.43
2018-02-11T02:57:09.971Z,3.39
2018-02-11T02:58:09.919Z,3.47
2018-02-11T02:59:09.866Z,3.47
2018-02-11T03:00:09.814Z,3.43
2018-02-11T03:01:09.761Z,3.45
2018-02-11T03:02:09.709Z,3.50
2018-02-11T03:03:09.656Z,3.52
2018-02-11T03:04:09.606Z,3.43
2018-02-11T03:05:09.555Z,3.54
2018-02-11T03:06:09.500Z,3.52
2018-02-11T03:07:09.447Z,3.52
2018-02-11T03:08:09.394Z,3.52
2018-02-11T03:09:09.342Z,3.50
2018-02-11T03:10:09.291Z,3.48
2018-02-11T03:11:09.237Z,3.47
2018-02-11T03:12:09.184Z,3.60
2018-02-11T03:13:09.132Z,3.52
2018-02-11T03:14:09.080Z,3.57
2018-02-11T03:15:09.027Z,3.51
2018-02-11T03:16:08.976Z,3.52
2018-02-11T03:17:08.922Z,3.55
2018-02-11T03:18:08.870Z,3.65
2018-02-11T03:19:08.819Z,3.57
2018-02-11T03:20:08.764Z,3.62
2018-02-11T03:21:08.712Z,3.61
2018-02-11T03:22:08.660Z,3.61
2018-02-11T03:23:08.606Z,3.47
2018-02-11T03:24:08.554Z,3.51
2018-02-11T03:25:08.502Z,3.39
2018-02-11T03:26:08.450Z,3.42
2018-02-11T03:27:08.397Z,3.40
2018-02-11T03:28:08.344Z,3.36
2018-02-11T03:29:08.292Z,3.45
2018-02-11T03:30:08.241Z,3.40
2018-02-11T03:31:08.187Z,3.45
2018-02-11T03:32:08.134Z,3.45
2018-02-11T03:33:08.082Z,3.47
2018-02-11T03:34:08.029Z,3.39
2018-02-11T03:35:07.976Z,3.40
2018-02-11T03:36:07.924Z,3.39
2018-02-11T03:37:07.872Z,3.42
2018-02-11T03:38:07.819Z,3.43
2018-02-11T03:39:07.765Z,3.40
2018-02-11T03:40:07.713Z,3.35
2018-02-11T03:41:07.668Z,3.32
2018-02-11T03:42:07.608Z,3.29
2018-02-11T03:43:07.555Z,3.31
2018-02-11T03:44:07.502Z,3.24
2018-02-11T03:45:07.450Z,3.28
2018-02-11T03:46:07.397Z,3.24
2018-02-11T03:47:07.351Z,3.24
2018-02-11T03:48:07.291Z,3.21
2018-02-11T03:49:07.239Z,3.33
2018-02-11T03:50:07.205Z,3.31
2018-02-11T03:51:07.133Z,3.31
2018-02-11T03:52:07.080Z,3.26
2018-02-11T03:53:07.027Z,3.28
2018-02-11T03:54:07.024Z,3.26
2018-02-11T03:55:06.921Z,3.26
2018-02-11T03:56:06.868Z,3.26
2018-02-11T03:57:06.816Z,3.31
2018-02-11T03:58:06.765Z,3.29
2018-02-11T03:59:06.710Z,3.29
2018-02-11T04:00:06.657Z,3.31
2018-02-11T04:01:06.605Z,3.29
2018-02-11T04:02:06.552Z,3.28
2018-02-11T04:03:06.498Z,3.33
2018-02-11T04:04:06.453Z,3.26
2018-02-11T04:05:06.393Z,3.24
2018-02-11T04:06:06.341Z,3.21
2018-02-11T04:07:06.287Z,3.18
2018-02-11T04:08:06.235Z,3.29
2018-02-11T04:09:06.182Z,3.14
2018-02-11T04:10:06.129Z,3.18
2018-02-11T04:11:06.075Z,3.23
2018-02-11T04:12:06.023Z,3.15
2018-02-11T04:13:05.970Z,3.20
2018-02-11T04:14:05.917Z,3.15
2018-02-11T04:15:05.864Z,3.13
2018-02-11T04:16:05.811Z,3.20
2018-02-11T04:17:05.759Z,3.23
2018-02-11T04:18:05.706Z,3.15
2018-02-11T04:19:05.652Z,3.14
2018-02-11T04:20:05.599Z,3.14
2018-02-11T04:21:05.547Z,3.11
2018-02-11T04:22:05.494Z,3.13
2018-02-11T04:23:05.440Z,3.17
2018-02-11T04:24:05.389Z,3.06
2018-02-11T04:25:05.334Z,3.05
2018-02-11T04:26:05.282Z,3.03
2018-02-11T04:27:05.229Z,3.02
2018-02-11T04:28:05.175Z,3.02
2018-02-11T04:29:05.123Z,3.02
2018-02-11T04:30:05.070Z,3.02
2018-02-11T04:31:05.016Z,3.17
2018-02-11T04:32:04.963Z,3.11
2018-02-11T04:33:04.911Z,3.03
2018-02-11T04:34:04.858Z,2.97
2018-02-11T04:35:04.804Z,3.06
2018-02-11T04:36:04.752Z,2.97
2018-02-11T04:37:04.698Z,3.00
2018-02-11T04:38:04.646Z,3.05
2018-02-11T04:39:04.592Z,3.03
2018-02-11T04:40:04.540Z,2.99
2018-02-11T04:41:04.486Z,3.06
2018-02-11T04:42:04.484Z,2.97
2018-02-11T04:43:04.380Z,3.00
2018-02-11T04:44:04.327Z,3.00
2018-02-11T04:45:04.274Z,3.06
2018-02-11T04:46:04.221Z,3.02
2018-02-11T04:47:04.167Z,3.05
2018-02-11T04:48:04.115Z,2.99
2018-02-11T04:49:04.062Z,3.00
2018-02-11T04:50:04.009Z,3.10
2018-02-11T04:51:03.955Z,3.11
2018-02-11T04:52:03.903Z,3.14
2018-02-11T04:53:03.850Z,3.13
2018-02-11T04:54:03.798Z,3.23
2018-02-11T04:55:03.744Z,3.24
2018-02-11T04:56:03.690Z,3.24
2018-02-11T04:57:03.638Z,3.28
2018-02-11T04:58:03.585Z,3.39
2018-02-11T04:59:03.535Z,3.45
2018-02-11T05:00:03.480Z,3.47
2018-02-11T05:01:03.427Z,3.54
2018-02-11T05:02:03.374Z,3.47
2018-02-11T05:03:03.320Z,3.52
2018-02-11T05:04:03.269Z,3.45
2018-02-11T05:05:03.216Z,3.50
2018-02-11T05:06:03.164Z,3.45
2018-02-11T05:07:03.111Z,3.42
2018-02-11T05:08:03.058Z,3.51
2018-02-11T05:09:03.005Z,3.45
2018-02-11T05:10:02.953Z,3.51
2018-02-11T05:11:02.900Z,3.50
2018-02-11T05:12:02.848Z,3.48
2018-02-11T05:13:02.795Z,3.57
2018-02-11T05:14:02.743Z,3.52
2018-02-11T05:15:02.690Z,3.60
2018-02-11T05:16:02.645Z,3.62
2018-02-11T05:17:02.585Z,3.66
2018-02-11T05:18:02.533Z,3.54
2018-02-11T05:19:02.480Z,3.54
2018-02-11T05:20:02.428Z,3.61
2018-02-11T05:21:02.375Z,3.61
2018-02-11T05:22:02.323Z,3.58
2018-02-11T05:23:02.270Z,3.61
2018-02-11T05:24:02.217Z,3.58
2018-02-11T05:25:02.165Z,3.54
2018-02-11T05:26:02.119Z,3.61
2018-02-11T05:27:02.060Z,3.50
2018-02-11T05:28:02.007Z,3.57
2018-02-11T05:29:01.955Z,3.55
2018-02-11T05:30:01.903Z,3.50
2018-02-11T05:31:01.850Z,3.57
2018-02-11T05:32:01.797Z,3.48
2018-02-11T05:33:01.744Z,3.50
2018-02-11T05:34:01.692Z,3.51
2018-02-11T05:35:01.638Z,3.48
2018-02-11T05:36:01.586Z,3.42
2018-02-11T05:37:01.533Z,3.45
2018-02-11T05:38:01.482Z,3.42
2018-02-11T05:39:01.428Z,3.39
2018-02-11T05:40:01.375Z,3.32
2018-02-11T05:41:01.324Z,3.24
2018-02-11T05:42:01.271Z,3.26
2018-02-11T05:43:01.217Z,3.29
2018-02-11T05:44:01.164Z,3.18
2018-02-11T05:45:01.162Z,3.20
2018-02-11T05:46:01.059Z,3.23
2018-02-11T05:47:01.005Z,3.15
2018-02-11T05:48:00.953Z,3.20
2018-02-11T05:49:00.900Z,3.18
2018-02-11T05:50:00.848Z,3.08
2018-02-11T05:51:00.794Z,3.20
2018-02-11T05:52:00.741Z,3.17
2018-02-11T05:53:00.688Z,3.13
2018-02-11T05:54:00.636Z,3.21
2018-02-11T05:55:00.582Z,3.14
2018-02-11T05:56:00.529Z,3.17
2018-02-11T05:57:00.477Z,3.28
2018-02-11T05:58:00.424Z,3.17
2018-02-11T05:59:00.370Z,3.26
2018-02-11T06:00:00.317Z,3.18
2018-02-11T06:01:00.264Z,3.28
2018-02-11T06:02:00.211Z,3.18
2018-02-11T06:03:00.158Z,3.28
2018-02-11T06:04:00.105Z,3.18
2018-02-11T06:05:00.057Z,3.20
2018-02-11T06:05:59.999Z,3.18
2018-02-11T06:06:59.946Z,3.20
2018-02-11T06:07:59.893Z,3.23
2018-02-11T06:08:59.841Z,3.21
2018-02-11T06:09:59.791Z,3.15
2018-02-11T06:10:59.734Z,3.14
2018-02-11T06:11:59.681Z,3.17
2018-02-11T06:12:59.628Z,3.15
2018-02-11T06:13:59.575Z,3.15
2018-02-11T06:14:59.522Z,3.13
2018-02-11T06:15:59.468Z,3.15
2018-02-11T06:16:59.416Z,3.10
2018-02-11T06:17:59.364Z,3.08
2018-02-11T06:18:59.309Z,3.03
2018-02-11T06:19:59.256Z,3.02
2018-02-11T06:20:59.203Z,2.99
2018-02-11T06:21:59.150Z,3.11
2018-02-11T06:22:59.097Z,3.17
2018-02-11T06:23:59.043Z,3.15
2018-02-11T06:24:58.990Z,3.06
2018-02-11T06:25:58.938Z,3.21
2018-02-11T06:26:58.884Z,3.00
2018-02-11T06:27:58.831Z,3.08
2018-02-11T06:28:58.778Z,3.06
2018-02-11T06:29:58.725Z,3.00
2018-02-11T06:30:58.671Z,2.97
2018-02-11T06:31:58.618Z,2.99
2018-02-11T06:32:58.565Z,3.14
2018-02-11T06:33:58.512Z,3.15
2018-02-11T06:34:58.459Z,3.14
2018-02-11T06:35:58.405Z,3.14
2018-02-11T06:36:58.352Z,3.15
2018-02-11T06:37:58.300Z,3.10
2018-02-11T06:38:58.246Z,3.14
2018-02-11T06:39:58.195Z,3.17
2018-02-11T06:40:58.140Z,3.21
2018-02-11T06:41:58.087Z,3.14
2018-02-11T06:42:58.033Z,3.13
2018-02-11T06:43:57.980Z,3.18
2018-02-11T06:44:57.928Z,3.18
2018-02-11T06:45:57.877Z,3.23
2018-02-11T06:46:57.821Z,3.15
2018-02-11T06:47:57.768Z,3.24
2018-02-11T06:48:57.715Z,3.20
2018-02-11T06:49:57.662Z,3.18
2018-02-11T06:50:57.608Z,3.21
2018-02-11T06:51:57.557Z,3.21
2018-02-11T06:52:57.502Z,3.26
2018-02-11T06:53:57.450Z,3.21
2018-02-11T06:54:57.396Z,3.17
2018-02-11T06:55:57.343Z,3.28
2018-02-11T06:56:57.290Z,3.26
2018-02-11T06:57:57.237Z,3.28
2018-02-11T06:58:57.183Z,3.28
2018-02-11T06:59:57.130Z,3.35
2018-02-11T07:00:57.078Z,3.40
2018-02-11T07:01:57.028Z,3.45
2018-02-11T07:02:56.970Z,3.51
2018-02-11T07:03:56.919Z,3.43
2018-02-11T07:04:56.866Z,3.43
2018-02-11T07:05:56.813Z,3.47
2018-02-11T07:06:56.759Z,3.52
2018-02-11T07:07:56.706Z,3.58
2018-02-11T07:08:56.654Z,3.65
2018-02-11T07:09:56.651Z,3.62
2018-02-11T07:10:56.548Z,3.69
2018-02-11T07:11:56.495Z,3.73
2018-02-11T07:12:56.444Z,3.83
2018-02-11T07:13:56.390Z,3.75
2018-02-11T07:14:56.337Z,3.80
2018-02-11T07:15:56.283Z,3.78
2018-02-11T07:16:56.231Z,3.80
2018-02-11T07:17:56.179Z,3.79
2018-02-11T07:18:56.128Z,3.78
2018-02-11T07:19:56.073Z,3.86
2018-02-11T07:20:56.025Z,3.80
2018-02-11T07:21:55.968Z,3.90
2018-02-11T07:22:55.915Z,3.86
2018-02-11T07:23:55.863Z,3.98
2018-02-11T07:24:55.810Z,3.97
2018-02-11T07:25:55.758Z,4.00
2018-02-11T07:26:55.704Z,4.06
2018-02-11T07:27:55.653Z,4.11
2018-02-11T07:28:55.601Z,4.24
2018-02-11T07:29:55.548Z,4.24
2018-02-11T07:30:55.495Z,4.36
2018-02-11T07:31:55.443Z,4.44
2018-02-11T07:32:55.391Z,4.62
2018-02-11T07:33:55.339Z,4.59
2018-02-11T07:34:55.287Z,4.73
2018-02-11T07:35:55.236Z,5.02
2018-02-11T07:36:55.183Z,5.38
2018-02-11T07:37:55.131Z,6.03
2018-02-11T07:38:55.079Z,6.81
2018-02-11T07:39:55.028Z,7.45
2018-02-11T07:40:54.977Z,7.85
2018-02-11T07:41:54.926Z,8.00
2018-02-11T07:42:54.875Z,8.20
2018-02-11T07:43:54.833Z,8.28
2018-02-11T07:44:54.781Z,8.63
2018-02-11T07:45:54.726Z,8.87
2018-02-11T07:46:54.676Z,8.98
2018-02-11T07:47:54.628Z,8.98
2018-02-11T07:48:54.579Z,8.96
2018-02-11T07:49:54.537Z,8.71
2018-02-11T07:50:54.481Z,8.48
2018-02-11T07:51:54.433Z,8.65
2018-02-11T07:52:54.385Z,8.81
2018-02-11T07:53:54.337Z,8.76
2018-02-11T07:54:54.288Z,8.45
2018-02-11T07:55:54.240Z,8.25
2018-02-11T07:56:54.191Z,8.05
2018-02-11T07:57:54.143Z,7.83
2018-02-11T07:58:54.095Z,7.45
2018-02-11T07:59:54.047Z,7.34
2018-02-11T08:00:54.001Z,7.28
2018-02-11T08:01:53.955Z,7.03
2018-02-11T08:02:53.904Z,6.89
2018-02-11T08:03:53.852Z,6.70
2018-02-11T08:04:53.854Z,6.43
2018-02-11T08:05:53.755Z,6.18
2018-02-11T08:06:53.705Z,6.01
2018-02-11T08:07:53.657Z,5.93
2018-02-11T08:08:53.609Z,5.79
2018-02-11T08:09:53.558Z,5.74
2018-02-11T08:10:53.508Z,5.56
2018-02-11T08:11:53.458Z,5.43
2018-02-11T08:12:53.409Z,5.33
2018-02-11T08:13:53.358Z,5.33
2018-02-11T08:14:53.308Z,5.24
2018-02-11T08:15:53.258Z,5.27
2018-02-11T08:16:53.215Z,5.20
2018-02-11T08:17:53.158Z,5.15
2018-02-11T08:18:53.107Z,5.20
2018-02-11T08:19:53.057Z,5.24
2018-02-11T08:20:53.007Z,5.31
2018-02-11T08:21:52.957Z,5.31
2018-02-11T08:22:52.905Z,5.38
2018-02-11T08:23:52.855Z,5.42
2018-02-11T08:24:52.805Z,5.63
2018-02-11T08:25:52.754Z,5.75
2018-02-11T08:26:52.703Z,6.01
2018-02-11T08:27:52.654Z,6.25
2018-02-11T08:28:52.603Z,6.54
2018-02-11T08:29:52.552Z,6.74
2018-02-11T08:30:52.502Z,7.03
2018-02-11T08:31:52.452Z,7.32
2018-02-11T08:32:52.408Z,7.39
2018-02-11T08:33:52.353Z,7.48
2018-02-11T08:34:52.303Z,7.57
2018-02-11T08:35:52.254Z,7.71
2018-02-11T08:36:52.205Z,7.60
2018-02-11T08:37:52.158Z,7.53
2018-02-11T08:38:52.106Z,7.31
2018-02-11T08:39:52.057Z,7.20
2018-02-11T08:40:52.008Z,7.46
2018-02-11T08:41:51.960Z,8.04
2018-02-11T08:42:51.910Z,8.48
2018-02-11T08:43:51.861Z,8.98
2018-02-11T08:44:51.814Z,9.40
2018-02-11T08:45:51.767Z,10.01
2018-02-11T08:46:51.717Z,10.79
2018-02-11T08:47:51.670Z,11.24
2018-02-11T08:48:51.624Z,11.61
2018-02-11T08:49:51.585Z,12.02
2018-02-11T08:50:51.534Z,12.19
2018-02-11T08:51:51.486Z,12.45
2018-02-11T08:52:51.441Z,12.49
2018-02-11T08:53:51.396Z,12.21
2018-02-11T08:54:51.355Z,11.75
2018-02-11T08:55:51.305Z,11.37
2018-02-11T08:56:51.261Z,11.09
2018-02-11T08:57:51.216Z,10.59
2018-02-11T08:58:51.171Z,10.08
2018-02-11T08:59:51.125Z,9.57
2018-02-11T09:00:51.082Z,9.20
2018-02-11T09:01:51.035Z,8.74
2018-02-11T09:02:50.988Z,8.41
2018-02-11T09:03:50.942Z,8.11
2018-02-11T09:04:50.896Z,7.87
2018-02-11T09:05:50.850Z,7.64
2018-02-11T09:06:50.801Z,7.40
2018-02-11T09:07:50.755Z,7.13
2018-02-11T09:08:50.709Z,6.95
2018-02-11T09:09:50.660Z,6.84
2018-02-11T09:10:50.612Z,6.76
2018-02-11T09:11:50.565Z,6.76
2018-02-11T09:12:50.564Z,6.73
2018-02-11T09:13:50.468Z,6.59
2018-02-11T09:14:50.419Z,6.52
2018-02-11T09:15:50.384Z,6.55
2018-02-11T09:16:50.323Z,6.56
2018-02-11T09:17:50.275Z,6.58
2018-02-11T09:18:50.228Z,6.69
2018-02-11T09:19:50.176Z,6.73
2018-02-11T09:20:50.127Z,6.69
2018-02-11T09:21:50.078Z,6.55
2018-02-11T09:22:50.029Z,6.56
2018-02-11T09:23:49.980Z,6.61
2018-02-11T09:24:49.931Z,6.69
2018-02-11T09:25:49.882Z,6.81
2018-02-11T09:26:49.832Z,6.85
2018-02-11T09:27:49.782Z,7.02
2018-02-11T09:28:49.734Z,7.24
2018-02-11T09:29:49.684Z,7.37
2018-02-11T09:30:49.636Z,7.42
2018-02-11T09:31:49.589Z,7.55
2018-02-11T09:32:49.537Z,7.82
2018-02-11T09:33:49.489Z,8.00
2018-02-11T09:34:49.439Z,8.11
2018-02-11T09:35:49.390Z,8.10
2018-02-11T09:36:49.342Z,7.97
2018-02-11T09:37:49.293Z,7.86
2018-02-11T09:38:49.244Z,7.74
2018-02-11T09:39:49.195Z,7.61
2018-02-11T09:40:49.149Z,7.49
2018-02-11T09:41:49.102Z,7.48
2018-02-11T09:42:49.050Z,7.39
2018-02-11T09:43:49.002Z,7.37
2018-02-11T09:44:48.953Z,7.35
2018-02-11T09:45:48.905Z,7.30
2018-02-11T09:46:48.856Z,7.37
2018-02-11T09:47:48.807Z,7.43
2018-02-11T09:48:48.758Z,7.46
2018-02-11T09:49:48.712Z,7.63
2018-02-11T09:50:48.661Z,7.58
2018-02-11T09:51:48.613Z,7.61
2018-02-11T09:52:48.564Z,7.53
2018-02-11T09:53:48.516Z,7.48
2018-02-11T09:54:48.466Z,7.35
2018-02-11T09:55:48.420Z,7.34
2018-02-11T09:56:48.370Z,7.30
2018-02-11T09:57:48.322Z,7.17
2018-02-11T09:58:48.272Z,7.12
2018-02-11T09:59:48.223Z,7.12
2018-02-11T10:00:48.177Z,6.97
2018-02-11T10:01:48.125Z,6.80
2018-02-11T10:02:48.075Z,6.71
2018-02-11T10:03:48.026Z,6.58
2018-02-11T10:04:47.981Z,6.62
2018-02-11T10:05:47.932Z,6.61
2018-02-11T10:06:47.879Z,6.74
2018-02-11T10:07:47.830Z,6.76
2018-02-11T10:08:47.781Z,6.62
2018-02-11T10:09:47.730Z,6.58
2018-02-11T10:10:47.679Z,6.51
2018-02-11T10:11:47.634Z,6.55
2018-02-11T10:12:47.581Z,6.48
2018-02-11T10:13:47.531Z,6.52
2018-02-11T10:14:47.481Z,6.55
2018-02-11T10:15:47.431Z,6.69
2018-02-11T10:16:47.381Z,6.67
2018-02-11T10:17:47.334Z,6.80
2018-02-11T10:18:47.284Z,7.02
2018-02-11T10:19:47.231Z,7.03
2018-02-11T10:20:47.182Z,7.12
2018-02-11T10:21:47.132Z,7.07
2018-02-11T10:22:47.083Z,7.17
2018-02-11T10:23:47.082Z,7.21
2018-02-11T10:24:46.983Z,7.39
2018-02-11T10:25:46.941Z,7.43
2018-02-11T10:26:46.884Z,7.60
2018-02-11T10:27:46.834Z,7.52
2018-02-11T10:28:46.785Z,7.61
2018-02-11T10:29:46.736Z,7.64
2018-02-11T10:30:46.686Z,7.74
2018-02-11T10:31:46.636Z,7.85
2018-02-11T10:32:46.588Z,7.80
2018-02-11T10:33:46.539Z,7.79
2018-02-11T10:34:46.489Z,7.79
2018-02-11T10:35:46.442Z,7.90
2018-02-11T10:36:46.391Z,7.93
2018-02-11T10:37:46.352Z,7.95
2018-02-11T10:38:46.292Z,7.93
2018-02-11T10:39:46.244Z,7.86
2018-02-11T10:40:46.205Z,7.82
2018-02-11T10:41:46.149Z,7.82
2018-02-11T10:42:46.097Z,7.95
2018-02-11T10:43:46.053Z,7.95
2018-02-11T10:44:45.999Z,8.02
2018-02-11T10:45:45.950Z,8.11
2018-02-11T10:46:45.901Z,8.10
2018-02-11T10:47:45.853Z,8.12
2018-02-11T10:48:45.804Z,8.11
2018-02-11T10:49:45.755Z,8.11
2018-02-11T10:50:45.705Z,8.04
2018-02-11T10:51:45.657Z,7.92
2018-02-11T10:52:45.608Z,7.92
2018-02-11T10:53:45.559Z,7.87
2018-02-11T10:54:45.510Z,7.95
2018-02-11T10:55:45.460Z,7.97
2018-02-11T10:56:45.413Z,8.04
2018-02-11T10:57:45.364Z,7.95
2018-02-11T10:58:45.315Z,7.95
2018-02-11T10:59:45.266Z,7.95
2018-02-11T11:00:45.217Z,7.89
2018-02-11T11:01:45.170Z,7.95
2018-02-11T11:02:45.119Z,7.93
2018-02-11T11:03:45.071Z,8.01
2018-02-11T11:04:45.023Z,7.93
2018-02-11T11:05:44.974Z,7.86
2018-02-11T11:06:44.927Z,7.93
2018-02-11T11:07:44.876Z,7.83
2018-02-11T11:08:44.827Z,7.69
2018-02-11T11:09:44.779Z,7.69
2018-02-11T11:10:44.730Z,7.68
2018-02-11T11:11:44.681Z,7.63
2018-02-11T11:12:44.633Z,7.48
2018-02-11T11:13:44.584Z,7.43
2018-02-11T11:14:44.534Z,7.48
2018-02-11T11:15:44.485Z,7.43
2018-02-11T11:16:44.437Z,7.55
2018-02-11T11:17:44.388Z,7.45
2018-02-11T11:18:44.339Z,7.53
2018-02-11T11:19:44.290Z,7.42
2018-02-11T11:20:44.241Z,7.37
2018-02-11T11:21:44.193Z,7.32
2018-02-11T11:22:44.144Z,7.21
2018-02-11T11:23:44.101Z,7.10
2018-02-11T11:24:44.045Z,7.15
2018-02-11T11:25:43.996Z,7.17
2018-02-11T11:26:43.946Z,7.20
2018-02-11T11:27:43.897Z,7.12
2018-02-11T11:28:43.848Z,7.17
2018-02-11T11:29:43.799Z,7.12
2018-02-11T11:30:43.748Z,7.32
2018-02-11T11:31:43.699Z,7.34
2018-02-11T11:32:43.649Z,7.39
2018-02-11T11:33:43.602Z,7.28
2018-02-11T11:34:43.552Z,7.34
2018-02-11T11:35:43.503Z,7.32
2018-02-11T11:36:43.454Z,7.32
2018-02-11T11:37:43.455Z,7.35
2018-02-11T11:38:43.381Z,7.35
2018-02-11T11:39:43.307Z,7.35
2018-02-11T11:40:43.257Z,7.34
2018-02-11T11:41:43.212Z,7.32
2018-02-11T11:42:43.258Z,7.23
2018-02-11T11:43:43.112Z,7.16
2018-02-11T11:44:43.060Z,7.17
2018-02-11T11:45:43.011Z,7.21
2018-02-11T11:46:42.961Z,7.21
2018-02-11T11:47:42.911Z,7.23
2018-02-11T11:48:42.863Z,7.30
2018-02-11T11:49:42.814Z,7.32
2018-02-11T11:50:42.764Z,7.34
2018-02-11T11:51:42.715Z,7.25
2018-02-11T11:52:42.666Z,7.32
2018-02-11T11:53:42.617Z,7.28
2018-02-11T11:54:42.568Z,7.20
2018-02-11T11:55:42.518Z,7.16
2018-02-11T11:56:42.470Z,7.28
2018-02-11T11:57:42.421Z,7.32
2018-02-11T11:58:42.371Z,7.20
2018-02-11T11:59:42.322Z,7.37
2018-02-11T12:00:42.272Z,7.37
2018-02-11T12:01:42.224Z,7.25
2018-02-11T12:02:42.174Z,7.25
2018-02-11T12:03:42.126Z,7.23
2018-02-11T12:04:42.076Z,7.24
2018-02-11T12:05:42.027Z,7.27
2018-02-11T12:06:41.977Z,7.20
2018-02-11T12:07:41.928Z,7.23
2018-02-11T12:08:41.879Z,7.16
2018-02-11T12:09:41.830Z,7.15
2018-02-11T12:10:41.784Z,7.10
2018-02-11T12:11:41.735Z,7.10
2018-02-11T12:12:41.682Z,7.16
2018-02-11T12:13:41.633Z,7.10
2018-02-11T12:14:41.584Z,7.12
2018-02-11T12:15:41.535Z,7.02
2018-02-11T12:16:41.486Z,7.05
2018-02-11T12:17:41.436Z,7.03
2018-02-11T12:18:41.436Z,6.99
2018-02-11T12:19:41.337Z,6.98
2018-02-11T12:20:41.288Z,7.02
2018-02-11T12:21:41.239Z,7.02
2018-02-11T12:22:41.189Z,6.98
2018-02-11T12:23:41.147Z,6.98
2018-02-11T12:24:41.091Z,6.97
2018-02-11T12:25:41.041Z,6.98
2018-02-11T12:26:40.991Z,6.99
2018-02-11T12:27:40.942Z,6.95
2018-02-11T12:28:40.893Z,6.84
2018-02-11T12:29:40.844Z,6.84
2018-02-11T12:30:40.794Z,6.74
2018-02-11T12:31:40.743Z,6.64
2018-02-11T12:32:40.695Z,6.62
2018-02-11T12:33:40.645Z,6.58
2018-02-11T12:34:40.599Z,6.41
2018-02-11T12:35:40.545Z,6.46
2018-02-11T12:36:40.496Z,6.55
2018-02-11T12:37:40.446Z,6.49
2018-02-11T12:38:40.396Z,6.37
2018-02-11T12:39:40.346Z,6.27
2018-02-11T12:40:40.296Z,6.31
2018-02-11T12:41:40.247Z,6.19
2018-02-11T12:42:40.196Z,6.17
2018-02-11T12:43:40.147Z,6.14
2018-02-11T12:44:40.097Z,6.06
2018-02-11T12:45:40.048Z,5.99
2018-02-11T12:46:39.997Z,6.00
2018-02-11T12:47:39.948Z,5.97
2018-02-11T12:48:39.899Z,6.03
2018-02-11T12:49:39.848Z,5.94
2018-02-11T12:50:39.798Z,5.99
2018-02-11T12:51:39.747Z,5.94
2018-02-11T12:52:39.698Z,5.90
2018-02-11T12:53:39.651Z,5.83
2018-02-11T12:54:39.597Z,5.86
2018-02-11T12:55:39.547Z,5.83
2018-02-11T12:56:39.497Z,5.85
2018-02-11T12:57:39.447Z,5.86
2018-02-11T12:58:39.397Z,5.79
2018-02-11T12:59:39.347Z,5.79
2018-02-11T13:00:39.297Z,5.86
2018-02-11T13:01:39.287Z,5.90
2018-02-11T13:02:39.196Z,5.93
2018-02-11T13:03:39.146Z,5.86
2018-02-11T13:04:39.097Z,5.94
2018-02-11T13:05:39.046Z,5.86
2018-02-11T13:06:38.995Z,5.81
2018-02-11T13:07:38.945Z,5.99
2018-02-11T13:08:38.896Z,5.90
2018-02-11T13:09:38.845Z,5.91
2018-02-11T13:10:38.797Z,5.91
2018-02-11T13:11:38.745Z,5.85
2018-02-11T13:12:38.700Z,5.82
2018-02-11T13:13:38.644Z,5.81
2018-02-11T13:14:38.594Z,5.89
2018-02-11T13:15:38.544Z,5.86
2018-02-11T13:16:38.493Z,5.90
2018-02-11T13:17:38.443Z,5.96